createdAt,value
2023-03-20T00:02:21.873Z,8.30
2023-03-20T00:04:53.737Z,8.40
2023-03-20T00:07:25.866Z,8.40
2023-03-20T00:09:58.068Z,8.40
2023-03-20T00:12:29.926Z,8.40
2023-03-20T00:15:08.367Z,8.40
2023-03-20T00:17:40.099Z,8.40
2023-03-20T00:20:17.912Z,8.50
2023-03-20T00:22:50.079Z,8.50
2023-03-20T00:25:23.676Z,8.50
2023-03-20T00:27:55.840Z,8.50
2023-03-20T00:30:29.311Z,8.50
2023-03-20T00:33:01.468Z,8.50
2023-03-20T00:35:33.620Z,8.50
2023-03-20T00:38:05.461Z,8.50
2023-03-20T00:40:39.578Z,8.50
2023-03-20T00:43:16.038Z,8.50
2023-03-20T00:45:47.904Z,8.50
2023-03-20T00:48:22.199Z,8.50
2023-03-20T00:50:54.783Z,8.50
2023-03-20T00:53:26.851Z,8.50
2023-03-20T00:55:58.911Z,8.50
2023-03-20T00:58:32.763Z,8.50
2023-03-20T01:01:04.650Z,8.50
2023-03-20T01:03:38.561Z,8.50
2023-03-20T01:06:12.905Z,8.50
2023-03-20T01:08:44.787Z,8.50
2023-03-20T01:11:21.982Z,8.50
2023-03-20T01:13:53.788Z,8.50
2023-03-20T01:16:27.231Z,8.40
2023-03-20T01:18:59.014Z,8.40
2023-03-20T01:21:30.864Z,8.40
2023-03-20T01:24:05.640Z,8.40
2023-03-20T01:26:38.744Z,8.40
2023-03-20T01:29:28.426Z,8.40
2023-03-20T01:32:00.507Z,8.40
2023-03-20T01:34:32.400Z,8.40
2023-03-20T01:37:04.546Z,8.40
2023-03-20T01:39:36.989Z,8.40
2023-03-20T01:42:08.819Z,8.40
2023-03-20T01:44:40.772Z,8.40
2023-03-20T01:47:19.466Z,8.50
2023-03-20T01:50:09.644Z,8.40
2023-03-20T01:52:41.488Z,8.50
2023-03-20T01:55:13.313Z,8.50
2023-03-20T01:57:45.416Z,8.50
2023-03-20T02:00:17.980Z,8.50
2023-03-20T02:02:50.104Z,8.50
2023-03-20T02:05:22.716Z,8.60
2023-03-20T02:08:00.808Z,8.60
2023-03-20T02:10:32.614Z,8.70
2023-03-20T02:13:04.626Z,8.70
2023-03-20T02:15:37.001Z,8.70
2023-03-20T02:18:08.952Z,8.70
2023-03-20T02:20:59.517Z,8.80
2023-03-20T02:23:31.299Z,8.80
2023-03-20T02:26:12.225Z,8.80
2023-03-20T02:29:03.226Z,8.80
2023-03-20T02:31:34.994Z,8.80
2023-03-20T02:34:06.832Z,8.80
2023-03-20T02:36:57.163Z,8.80
2023-03-20T02:39:28.975Z,8.70
2023-03-20T02:42:03.573Z,8.70
2023-03-20T02:44:46.444Z,8.60
2023-03-20T02:47:25.047Z,8.60
2023-03-20T02:50:20.275Z,8.50
2023-03-20T02:53:12.410Z,8.50
2023-03-20T02:55:56.532Z,8.60
2023-03-20T02:58:31.168Z,8.60
2023-03-20T03:01:09.356Z,8.60
2023-03-20T03:03:46.211Z,8.60
2023-03-20T03:06:21.241Z,8.50
2023-03-20T03:09:02.321Z,8.50
2023-03-20T03:11:36.022Z,8.50
2023-03-20T03:14:09.689Z,8.40
2023-03-20T03:16:42.021Z,8.40
2023-03-20T03:19:16.779Z,8.40
2023-03-20T03:21:51.003Z,8.40
2023-03-20T03:24:40.381Z,8.40
2023-03-20T03:27:17.666Z,8.40
2023-03-20T03:29:56.838Z,8.50
2023-03-20T03:32:33.108Z,8.50
2023-03-20T03:35:06.334Z,8.60
2023-03-20T03:37:56.996Z,8.60
2023-03-20T03:40:29.112Z,8.60
2023-03-20T03:43:03.786Z,8.60
2023-03-20T03:45:37.376Z,8.70
2023-03-20T03:48:14.485Z,8.70
2023-03-20T03:50:49.765Z,8.80
2023-03-20T03:53:27.806Z,8.80
2023-03-20T03:56:02.051Z,8.80
2023-03-20T03:58:37.268Z,8.80
2023-03-20T04:01:12.936Z,8.80
2023-03-20T04:03:55.085Z,8.90
2023-03-20T04:06:29.969Z,8.90
2023-03-20T04:09:01.812Z,8.90
2023-03-20T04:11:35.750Z,8.90
2023-03-20T04:14:09.913Z,8.90
2023-03-20T04:16:42.388Z,8.90
2023-03-20T04:19:14.285Z,8.90
2023-03-20T04:21:46.466Z,8.90
2023-03-20T04:24:18.312Z,8.90
2023-03-20T04:26:50.889Z,8.80
2023-03-20T04:29:24.935Z,8.90
2023-03-20T04:31:59.963Z,8.90
2023-03-20T04:34:34.364Z,8.80
2023-03-20T04:37:08.510Z,8.80
2023-03-20T04:39:42.499Z,8.80
2023-03-20T04:42:14.285Z,8.80
2023-03-20T04:44:46.147Z,8.80
2023-03-20T04:47:20.523Z,8.80
2023-03-20T04:49:52.397Z,8.90
2023-03-20T04:52:27.013Z,8.90
2023-03-20T04:55:00.891Z,8.90
2023-03-20T04:57:33.099Z,8.90
2023-03-20T05:00:05.395Z,9.00
2023-03-20T05:02:37.218Z,9.00
2023-03-20T05:05:09.473Z,9.00
2023-03-20T05:07:43.440Z,9.00
2023-03-20T05:10:15.594Z,9.00
2023-03-20T05:12:50.041Z,9.00
2023-03-20T05:15:21.902Z,9.00
2023-03-20T05:17:54.997Z,9.00
2023-03-20T05:20:27.308Z,9.00
2023-03-20T05:23:01.676Z,9.10
2023-03-20T05:25:33.780Z,9.10
2023-03-20T05:28:05.645Z,9.10
2023-03-20T05:30:39.576Z,9.20
2023-03-20T05:33:12.486Z,9.20
2023-03-20T05:35:44.484Z,9.20
2023-03-20T05:38:16.572Z,9.30
2023-03-20T05:40:49.247Z,9.30
2023-03-20T05:43:21.077Z,9.30
2023-03-20T05:45:53.278Z,9.30
2023-03-20T05:48:27.273Z,9.30
2023-03-20T05:50:59.276Z,9.30
2023-03-20T05:53:31.114Z,9.40
2023-03-20T05:56:03.161Z,9.40
2023-03-20T05:58:36.622Z,9.40
2023-03-20T06:01:08.432Z,9.40
2023-03-20T06:03:40.832Z,9.50
2023-03-20T06:06:12.737Z,9.60
2023-03-20T06:08:44.618Z,9.60
2023-03-20T06:11:16.550Z,9.60
2023-03-20T06:13:49.443Z,9.70
2023-03-20T06:16:24.162Z,9.70
2023-03-20T06:18:56.137Z,9.80
2023-03-20T06:21:28.041Z,9.80
2023-03-20T06:24:00.198Z,9.80
2023-03-20T06:26:32.009Z,9.90
2023-03-20T06:29:03.951Z,9.90
2023-03-20T06:31:35.802Z,9.90
2023-03-20T06:34:07.853Z,10.00
2023-03-20T06:36:39.815Z,10.10
2023-03-20T06:39:14.255Z,10.10
2023-03-20T06:41:48.505Z,10.20
2023-03-20T06:44:20.417Z,10.30
2023-03-20T06:46:52.274Z,10.30
2023-03-20T06:49:24.486Z,10.40
2023-03-20T06:51:56.312Z,10.50
2023-03-20T06:54:30.675Z,10.60
2023-03-20T06:57:02.516Z,10.70
2023-03-20T06:59:35.563Z,10.70
2023-03-20T07:02:10.115Z,10.80
2023-03-20T07:04:44.302Z,10.90
2023-03-20T07:07:17.334Z,11.00
2023-03-20T07:09:52.384Z,11.00
2023-03-20T07:12:30.502Z,11.10
2023-03-20T07:15:02.258Z,11.10
2023-03-20T07:17:34.200Z,11.20
2023-03-20T07:20:06.226Z,11.20
2023-03-20T07:22:38.151Z,11.20
2023-03-20T07:25:10.376Z,11.10
2023-03-20T07:27:43.097Z,11.10
2023-03-20T07:30:14.965Z,11.00
2023-03-20T07:32:46.815Z,11.00
2023-03-20T07:35:18.818Z,11.00
2023-03-20T07:37:50.742Z,11.10
2023-03-20T07:40:22.496Z,11.10
2023-03-20T07:42:54.355Z,11.10
2023-03-20T07:45:28.517Z,11.10
2023-03-20T07:48:00.670Z,11.10
2023-03-20T07:50:32.706Z,11.20
2023-03-20T07:53:08.013Z,11.20
2023-03-20T07:55:39.878Z,11.20
2023-03-20T07:58:11.981Z,11.30
2023-03-20T08:00:43.784Z,11.30
2023-03-20T08:03:15.858Z,11.30
2023-03-20T08:05:47.723Z,11.30
2023-03-20T08:08:20.052Z,11.30
2023-03-20T08:10:51.879Z,11.30
2023-03-20T08:13:23.804Z,11.30
2023-03-20T08:15:55.741Z,11.30
2023-03-20T08:18:27.675Z,11.30
2023-03-20T08:20:59.476Z,11.30
2023-03-20T08:23:31.373Z,11.30
2023-03-20T08:26:03.178Z,11.40
2023-03-20T08:28:49.101Z,11.50
2023-03-20T08:31:23.487Z,11.60
2023-03-20T08:33:55.986Z,11.60
2023-03-20T08:36:29.997Z,11.60
2023-03-20T08:39:04.162Z,11.70
2023-03-20T08:41:43.795Z,11.80
2023-03-20T08:44:18.045Z,11.90
2023-03-20T08:46:49.971Z,12.20
2023-03-20T08:49:22.158Z,12.30
2023-03-20T08:51:53.932Z,12.40
2023-03-20T08:54:25.895Z,12.40
2023-03-20T08:57:00.006Z,12.40
2023-03-20T08:59:31.889Z,12.50
2023-03-20T09:02:03.793Z,12.80
2023-03-20T09:04:35.873Z,13.00
2023-03-20T09:07:10.008Z,13.20
2023-03-20T09:09:44.055Z,13.50
2023-03-20T09:12:15.885Z,13.60
2023-03-20T09:14:47.743Z,13.80
2023-03-20T09:17:19.566Z,13.90
2023-03-20T09:19:51.456Z,14.10
2023-03-20T09:22:23.336Z,14.30
2023-03-20T09:24:55.296Z,14.40
2023-03-20T09:27:29.523Z,14.50
2023-03-20T09:30:01.359Z,14.40
2023-03-20T09:32:36.082Z,14.20
2023-03-20T09:35:08.178Z,14.10
2023-03-20T09:37:40.125Z,14.00
2023-03-20T09:40:38.140Z,13.90
2023-03-20T09:43:30.470Z,14.00
2023-03-20T09:46:08.704Z,14.20
2023-03-20T09:48:56.665Z,14.30
2023-03-20T09:51:38.380Z,14.10
2023-03-20T09:54:13.542Z,13.90
2023-03-20T09:56:45.477Z,13.50
2023-03-20T09:59:18.353Z,13.10
2023-03-20T10:01:55.872Z,12.90
2023-03-20T10:04:29.219Z,12.80
2023-03-20T10:07:03.704Z,12.70
2023-03-20T10:09:35.629Z,12.80
2023-03-20T10:12:26.359Z,12.90
2023-03-20T10:15:07.099Z,13.00
2023-03-20T10:18:02.636Z,13.00
2023-03-20T10:20:42.966Z,12.90
2023-03-20T10:23:33.503Z,13.20
2023-03-20T10:26:13.031Z,13.50
2023-03-20T10:29:01.150Z,13.80
2023-03-20T10:31:42.486Z,13.90
2023-03-20T10:34:17.154Z,13.80
2023-03-20T10:37:14.340Z,13.80
2023-03-20T10:39:50.546Z,13.60
2023-03-20T10:42:41.335Z,13.50
2023-03-20T10:45:31.622Z,13.20
2023-03-20T10:48:07.148Z,12.70
2023-03-20T10:50:44.219Z,12.30
2023-03-20T10:53:37.392Z,12.20
2023-03-20T10:56:15.069Z,12.20
2023-03-20T10:58:58.281Z,12.20
2023-03-20T11:01:30.139Z,12.20
2023-03-20T11:04:02.027Z,12.30
2023-03-20T11:06:37.520Z,12.30
2023-03-20T11:09:19.269Z,12.30
2023-03-20T11:11:54.645Z,12.20
2023-03-20T11:14:32.149Z,12.20
2023-03-20T11:17:04.769Z,12.20
2023-03-20T11:19:38.460Z,12.30
2023-03-20T11:22:23.067Z,12.30
2023-03-20T11:24:56.439Z,12.20
2023-03-20T11:27:29.381Z,12.40
2023-03-20T11:30:03.056Z,12.50
2023-03-20T11:32:40.799Z,12.40
2023-03-20T11:35:27.939Z,12.40
2023-03-20T11:38:16.580Z,12.30
2023-03-20T11:40:49.492Z,12.30
2023-03-20T11:43:28.654Z,12.40
2023-03-20T11:46:01.497Z,12.50
2023-03-20T11:48:41.012Z,12.50
2023-03-20T11:51:19.151Z,12.60
2023-03-20T11:53:57.051Z,12.70
2023-03-20T11:56:29.893Z,12.60
2023-03-20T11:59:04.778Z,12.50
2023-03-20T12:01:49.789Z,12.20
2023-03-20T12:04:42.090Z,11.90
2023-03-20T12:07:19.727Z,11.80
2023-03-20T12:09:54.272Z,11.70
2023-03-20T12:12:38.362Z,11.50
2023-03-20T12:15:12.948Z,11.60
2023-03-20T12:17:44.740Z,11.60
2023-03-20T12:20:37.584Z,11.60
2023-03-20T12:23:09.549Z,11.70
2023-03-20T12:25:55.097Z,11.70
2023-03-20T12:28:26.932Z,11.70
2023-03-20T12:31:05.524Z,11.70
2023-03-20T12:33:39.691Z,11.70
2023-03-20T12:36:13.485Z,11.70
2023-03-20T12:38:46.107Z,11.80
2023-03-20T12:41:17.865Z,11.90
2023-03-20T12:43:49.658Z,12.00
2023-03-20T12:46:27.557Z,12.00
2023-03-20T12:49:12.662Z,12.10
2023-03-20T12:52:06.996Z,12.40
2023-03-20T12:54:58.987Z,12.40
2023-03-20T12:57:39.188Z,12.50
2023-03-20T13:00:32.241Z,12.50
2023-03-20T13:03:20.564Z,12.50
2023-03-20T13:06:10.100Z,12.50
2023-03-20T13:08:50.517Z,12.30
2023-03-20T13:11:22.292Z,12.20
2023-03-20T13:13:59.765Z,12.10
2023-03-20T13:16:39.362Z,12.20
2023-03-20T13:19:23.540Z,12.10
2023-03-20T13:21:58.454Z,12.00
2023-03-20T13:24:30.211Z,11.60
2023-03-20T13:27:22.752Z,11.20
2023-03-20T13:30:09.972Z,10.80
2023-03-20T13:32:44.538Z,10.40
2023-03-20T13:35:25.363Z,10.00
2023-03-20T13:37:59.338Z,9.70
2023-03-20T13:40:39.012Z,9.60
2023-03-20T13:43:32.356Z,9.40
2023-03-20T13:46:16.781Z,9.20
2023-03-20T13:48:49.521Z,9.20
2023-03-20T13:51:24.244Z,9.20
2023-03-20T13:54:07.983Z,9.10
2023-03-20T13:56:42.861Z,9.10
2023-03-20T13:59:29.562Z,9.20
2023-03-20T14:02:20.133Z,9.20
2023-03-20T14:05:03.096Z,9.20
2023-03-20T14:07:39.129Z,9.20
2023-03-20T14:10:23.407Z,9.20
2023-03-20T14:12:56.271Z,9.10
2023-03-20T14:15:31.666Z,9.00
2023-03-20T14:18:07.250Z,8.90
2023-03-20T14:20:45.492Z,8.80
2023-03-20T14:23:18.618Z,8.80
2023-03-20T14:25:54.638Z,8.80
2023-03-20T14:28:29.884Z,8.80
2023-03-20T14:31:21.737Z,8.70
2023-03-20T14:34:00.136Z,8.70
2023-03-20T14:36:44.910Z,8.60
2023-03-20T14:39:28.242Z,8.60
2023-03-20T14:42:15.806Z,8.60
2023-03-20T14:44:47.850Z,8.60
2023-03-20T14:47:34.740Z,8.60
2023-03-20T14:50:07.318Z,8.60
2023-03-20T14:52:42.114Z,8.70
2023-03-20T14:55:19.690Z,8.70
2023-03-20T14:57:56.837Z,8.70
2023-03-20T15:00:30.933Z,8.80
2023-03-20T15:03:07.303Z,8.90
2023-03-20T15:05:42.378Z,9.00
2023-03-20T15:08:23.578Z,9.10
2023-03-20T15:10:59.514Z,9.20
2023-03-20T15:13:31.411Z,9.20
2023-03-20T15:16:07.126Z,9.20
2023-03-20T15:18:51.251Z,9.10
2023-03-20T15:21:40.825Z,9.00
2023-03-20T15:24:25.111Z,9.00
2023-03-20T15:27:01.174Z,9.00
2023-03-20T15:29:34.422Z,9.00
2023-03-20T15:32:14.376Z,9.00
2023-03-20T15:34:47.612Z,9.00
2023-03-20T15:37:23.684Z,8.90
2023-03-20T15:40:00.566Z,8.90
2023-03-20T15:42:32.673Z,8.80
2023-03-20T15:45:16.632Z,8.90
2023-03-20T15:47:50.058Z,8.80
2023-03-20T15:50:25.129Z,8.80
2023-03-20T15:52:57.465Z,8.70
2023-03-20T15:55:29.483Z,8.70
2023-03-20T15:58:02.099Z,8.70
2023-03-20T16:00:37.286Z,8.70
2023-03-20T16:03:12.757Z,8.70
2023-03-20T16:05:45.420Z,8.70
2023-03-20T16:08:24.823Z,8.70
2023-03-20T16:10:58.005Z,8.70
2023-03-20T16:13:39.099Z,8.70
2023-03-20T16:16:14.376Z,8.70
2023-03-20T16:18:49.311Z,8.70
2023-03-20T16:21:22.802Z,8.50
2023-03-20T16:23:57.988Z,8.50
2023-03-20T16:26:29.880Z,8.40
2023-03-20T16:29:05.346Z,8.30
2023-03-20T16:31:42.651Z,8.20
2023-03-20T16:34:18.391Z,8.10
2023-03-20T16:36:58.058Z,8.10
2023-03-20T16:39:33.119Z,8.10
2023-03-20T16:42:07.969Z,8.10
2023-03-20T16:44:41.086Z,8.00
2023-03-20T16:47:21.741Z,8.00
2023-03-20T16:50:05.933Z,8.00
2023-03-20T16:52:39.598Z,8.00
2023-03-20T16:55:26.733Z,8.00
2023-03-20T16:58:11.694Z,8.00
2023-03-20T17:00:52.799Z,8.00
2023-03-20T17:03:28.938Z,8.00
2023-03-20T17:06:06.186Z,8.00
2023-03-20T17:08:41.556Z,8.00
2023-03-20T17:11:14.586Z,8.00
2023-03-20T17:13:46.402Z,7.90
2023-03-20T17:16:19.810Z,7.90
2023-03-20T17:19:10.687Z,7.90
2023-03-20T17:21:43.096Z,7.90
2023-03-20T17:24:17.590Z,7.90
2023-03-20T17:26:53.429Z,7.90
2023-03-20T17:29:25.172Z,7.90
2023-03-20T17:31:59.528Z,7.90
2023-03-20T17:34:31.484Z,7.80
2023-03-20T17:37:06.652Z,7.80
2023-03-20T17:39:38.388Z,7.80
2023-03-20T17:42:20.390Z,7.80
2023-03-20T17:44:52.844Z,7.80
2023-03-20T17:47:25.805Z,7.70
2023-03-20T17:49:57.992Z,7.70
2023-03-20T17:52:30.142Z,7.70
2023-03-20T17:55:02.042Z,7.70
2023-03-20T17:57:37.521Z,7.60
2023-03-20T18:00:13.266Z,7.60
2023-03-20T18:02:47.158Z,7.60
2023-03-20T18:05:19.201Z,7.60
2023-03-20T18:07:51.071Z,7.50
2023-03-20T18:10:26.269Z,7.50
2023-03-20T18:12:58.530Z,7.50
2023-03-20T18:15:30.636Z,7.50
2023-03-20T18:18:02.423Z,7.40
2023-03-20T18:20:35.487Z,7.40
2023-03-20T18:23:07.887Z,7.40
2023-03-20T18:25:44.695Z,7.40
2023-03-20T18:28:24.605Z,7.40
2023-03-20T18:30:56.429Z,7.40
2023-03-20T18:33:28.479Z,7.40
2023-03-20T18:36:02.814Z,7.40
2023-03-20T18:38:34.725Z,7.30
2023-03-20T18:41:06.617Z,7.30
2023-03-20T18:43:39.538Z,7.30
2023-03-20T18:46:15.467Z,7.30
2023-03-20T18:48:47.957Z,7.20
2023-03-20T18:51:20.568Z,7.30
2023-03-20T18:53:52.396Z,7.20
2023-03-20T18:56:25.543Z,7.20
2023-03-20T18:58:59.537Z,7.20
2023-03-20T19:01:31.595Z,7.20
2023-03-20T19:04:10.660Z,7.20
2023-03-20T19:06:43.674Z,7.10
2023-03-20T19:09:18.672Z,7.10
2023-03-20T19:11:53.851Z,7.10
2023-03-20T19:14:30.893Z,7.10
2023-03-20T19:17:05.968Z,7.00
2023-03-20T19:19:42.089Z,7.00
2023-03-20T19:22:28.499Z,7.00
2023-03-20T19:25:02.790Z,6.90
2023-03-20T19:27:34.863Z,6.90
2023-03-20T19:30:27.903Z,6.90
2023-03-20T19:33:00.075Z,7.00
2023-03-20T19:36:01.328Z,6.90
2023-03-20T19:38:28.690Z,6.90
2023-03-20T19:41:01.927Z,6.90
2023-03-20T19:43:51.753Z,6.90
2023-03-20T19:46:42.499Z,6.90
2023-03-20T19:49:19.690Z,6.90
2023-03-20T19:51:57.279Z,6.90
2023-03-20T19:54:30.580Z,7.00
2023-03-20T19:57:02.507Z,6.90
2023-03-20T19:59:43.752Z,7.00
2023-03-20T20:02:20.483Z,7.00
2023-03-20T20:04:52.576Z,6.90
2023-03-20T20:08:06.243Z,6.90
2023-03-20T20:10:21.172Z,6.90
2023-03-20T20:12:56.139Z,6.90
2023-03-20T20:15:28.033Z,6.90
2023-03-20T20:18:03.692Z,6.90
2023-03-20T20:21:10.651Z,6.90
2023-03-20T20:23:29.095Z,6.90
2023-03-20T20:26:05.094Z,6.90
2023-03-20T20:28:41.426Z,6.90
2023-03-20T20:31:20.733Z,6.90
2023-03-20T20:34:38.599Z,6.90
2023-03-20T20:37:51.080Z,6.90
2023-03-20T20:40:01.442Z,6.80
2023-03-20T20:42:38.107Z,6.80
2023-03-20T20:45:12.224Z,6.80
2023-03-20T20:47:45.835Z,6.80
2023-03-20T20:50:19.633Z,6.90
2023-03-20T20:52:51.863Z,6.80
2023-03-20T20:55:29.004Z,6.80
2023-03-20T20:58:07.285Z,6.80
2023-03-20T21:00:51.663Z,6.80
2023-03-20T21:03:26.535Z,6.80
2023-03-20T21:06:03.531Z,6.80
2023-03-20T21:08:36.796Z,6.80
2023-03-20T21:11:08.618Z,6.80
2023-03-20T21:13:42.589Z,6.80
2023-03-20T21:16:17.909Z,6.70
2023-03-20T21:18:49.880Z,6.80
2023-03-20T21:21:21.722Z,6.70
2023-03-20T21:23:53.625Z,6.70
2023-03-20T21:26:25.508Z,6.70
2023-03-20T21:28:59.861Z,6.70
2023-03-20T21:31:32.014Z,6.70
2023-03-20T21:34:06.099Z,6.80
2023-03-20T21:36:37.929Z,6.70
2023-03-20T21:39:09.859Z,6.70
2023-03-20T21:41:41.851Z,6.70
2023-03-20T21:44:17.423Z,6.80
2023-03-20T21:47:50.428Z,6.70
2023-03-20T21:50:34.417Z,6.80
2023-03-20T21:53:14.718Z,6.70
2023-03-20T22:05:02.060Z,6.70
2023-03-20T22:07:44.908Z,6.70
2023-03-20T22:16:16.564Z,6.80
2023-03-20T22:19:17.891Z,6.70
2023-03-20T22:24:54.852Z,6.70
2023-03-20T22:30:52.652Z,6.80
2023-03-20T22:33:39.076Z,6.80
2023-03-20T22:47:15.684Z,6.80
2023-03-20T22:49:47.478Z,6.80
2023-03-20T22:52:34.738Z,6.80
2023-03-20T22:55:10.121Z,6.80
2023-03-20T22:57:50.147Z,6.80
2023-03-20T23:00:31.566Z,6.80
2023-03-20T23:03:19.502Z,6.70
2023-03-20T23:05:55.312Z,6.70
2023-03-20T23:08:27.996Z,6.70
2023-03-20T23:10:59.981Z,6.70
2023-03-20T23:13:31.779Z,6.70
2023-03-20T23:16:05.899Z,6.70
2023-03-20T23:18:37.821Z,6.70
2023-03-20T23:21:09.760Z,6.70
2023-03-20T23:23:41.596Z,6.70
2023-03-20T23:26:17.828Z,6.70
2023-03-20T23:28:51.437Z,6.70
2023-03-20T23:31:24.542Z,6.70
2023-03-20T23:33:57.237Z,6.70
2023-03-20T23:36:36.528Z,6.70
2023-03-20T23:39:11.092Z,6.70
2023-03-20T23:42:05.071Z,6.70
2023-03-20T23:44:35.003Z,6.70
2023-03-20T23:47:19.338Z,6.70
2023-03-20T23:49:51.823Z,6.70
2023-03-20T23:52:23.658Z,6.70
2023-03-20T23:54:55.864Z,6.60
2023-03-20T23:57:27.758Z,6.60
